QFA7298 YBBN-YBCS
Flight info
| Callsign | QFA7298 |
|---|---|
| Flight time | N/A |
| Altitude | 30000 |
| Route | BN Q67 CS |
| Aircraft | B462/M-SDFGIRWY/LB1 |
Departure
| Time | 2026-05-08 04:00 |
|---|---|
| Airport | Brisbane International Airport (YBBN) |
Arrival
| Time | N/A |
|---|---|
| Airport | Cairns International Airport (YBCS) |
| Time | Latitude | Longitude | Altitude | Speed | Heading |
|---|---|---|---|---|---|
| 2026-05-08 03:29 | -27.39865 | 153.11260 | 17 ft | 0 kts | 116° |
| 2026-05-08 03:46 | -27.39862 | 153.11254 | 18 ft | 3 kts | 122° |
| 2026-05-08 03:46 | -27.39845 | 153.11238 | 17 ft | 3 kts | 152° |
| 2026-05-08 03:47 | -27.39833 | 153.11224 | 19 ft | 3 kts | 91° |
| 2026-05-08 03:47 | -27.39833 | 153.11201 | 17 ft | 3 kts | 86° |
| 2026-05-08 03:47 | -27.39837 | 153.11176 | 19 ft | 3 kts | 68° |
| 2026-05-08 03:47 | -27.39850 | 153.11159 | 18 ft | 2 kts | 22° |
| 2026-05-08 03:48 | -27.39839 | 153.11165 | 17 ft | 3 kts | 25° |
| 2026-05-08 03:48 | -27.39826 | 153.11171 | 18 ft | 0 kts | 24° |
| 2026-05-08 03:51 | -27.39825 | 153.11172 | 18 ft | 0 kts | 24° |
| 2026-05-08 03:51 | -27.39815 | 153.11176 | 21 ft | 4 kts | 22° |
| 2026-05-08 03:51 | -27.39774 | 153.11202 | 17 ft | 10 kts | 31° |
| 2026-05-08 03:52 | -27.39713 | 153.11268 | 19 ft | 13 kts | 73° |
| 2026-05-08 03:52 | -27.39739 | 153.11367 | 17 ft | 14 kts | 117° |
| 2026-05-08 03:52 | -27.39784 | 153.11466 | 17 ft | 15 kts | 117° |
| 2026-05-08 03:52 | -27.39831 | 153.11570 | 17 ft | 15 kts | 117° |
| 2026-05-08 03:53 | -27.39868 | 153.11672 | 17 ft | 13 kts | 82° |
| 2026-05-08 03:53 | -27.39789 | 153.11736 | 18 ft | 17 kts | 26° |
| 2026-05-08 03:53 | -27.39674 | 153.11801 | 18 ft | 20 kts | 26° |
| 2026-05-08 03:53 | -27.39535 | 153.11884 | 18 ft | 24 kts | 25° |
| 2026-05-08 03:54 | -27.39373 | 153.11974 | 18 ft | 27 kts | 27° |
| 2026-05-08 03:54 | -27.39202 | 153.12071 | 18 ft | 28 kts | 27° |
| 2026-05-08 03:54 | -27.39026 | 153.12173 | 18 ft | 30 kts | 27° |
| 2026-05-08 03:54 | -27.38842 | 153.12278 | 18 ft | 29 kts | 27° |
| 2026-05-08 03:55 | -27.38662 | 153.12380 | 19 ft | 29 kts | 27° |
| 2026-05-08 03:55 | -27.38488 | 153.12480 | 19 ft | 28 kts | 27° |
| 2026-05-08 03:55 | -27.38328 | 153.12572 | 19 ft | 24 kts | 27° |
| 2026-05-08 03:55 | -27.38186 | 153.12653 | 18 ft | 23 kts | 26° |
| 2026-05-08 03:56 | -27.38038 | 153.12738 | 18 ft | 23 kts | 27° |
| 2026-05-08 03:56 | -27.37920 | 153.12804 | 18 ft | 14 kts | 25° |
| 2026-05-08 03:56 | -27.37845 | 153.12749 | 20 ft | 17 kts | 297° |
| 2026-05-08 03:56 | -27.37778 | 153.12604 | 17 ft | 25 kts | 297° |
| 2026-05-08 03:57 | -27.37690 | 153.12412 | 17 ft | 28 kts | 297° |
| 2026-05-08 03:57 | -27.37603 | 153.12226 | 17 ft | 26 kts | 297° |
| 2026-05-08 03:57 | -27.37513 | 153.12028 | 17 ft | 31 kts | 297° |
| 2026-05-08 03:57 | -27.37420 | 153.11825 | 18 ft | 28 kts | 297° |
| 2026-05-08 03:58 | -27.37338 | 153.11644 | 17 ft | 24 kts | 297° |
| 2026-05-08 03:58 | -27.37412 | 153.11520 | 19 ft | 23 kts | 207° |
| 2026-05-08 03:58 | -27.37564 | 153.11433 | 17 ft | 27 kts | 207° |
| 2026-05-08 03:58 | -27.37731 | 153.11337 | 18 ft | 25 kts | 207° |
| 2026-05-08 03:59 | -27.37875 | 153.11254 | 17 ft | 20 kts | 213° |
| 2026-05-08 03:59 | -27.37849 | 153.11117 | 17 ft | 22 kts | 298° |
| 2026-05-08 03:59 | -27.37794 | 153.10994 | 18 ft | 9 kts | 296° |
| 2026-05-08 03:59 | -27.37770 | 153.10986 | 18 ft | 6 kts | 28° |
| 2026-05-08 04:00 | -27.37607 | 153.11084 | 19 ft | 61 kts | 28° |
| 2026-05-08 04:00 | -27.37007 | 153.11422 | 20 ft | 127 kts | 30° |
| 2026-05-08 04:00 | -27.36151 | 153.11929 | 308 ft | 152 kts | 30° |
| 2026-05-08 04:00 | -27.35199 | 153.12504 | 868 ft | 161 kts | 26° |
| 2026-05-08 04:01 | -27.34218 | 153.13090 | 1408 ft | 153 kts | 26° |
| 2026-05-08 04:01 | -27.33291 | 153.13629 | 1819 ft | 149 kts | 28° |
| 2026-05-08 04:01 | -27.32373 | 153.14156 | 2194 ft | 145 kts | 23° |
| 2026-05-08 04:01 | -27.31483 | 153.14666 | 2501 ft | 143 kts | 24° |
| 2026-05-08 04:02 | -27.30544 | 153.15202 | 2611 ft | 158 kts | 24° |
| 2026-05-08 04:02 | -27.29542 | 153.15774 | 2811 ft | 165 kts | 24° |
| 2026-05-08 04:02 | -27.28493 | 153.16373 | 2978 ft | 174 kts | 23° |
| 2026-05-08 04:02 | -27.27390 | 153.17000 | 3173 ft | 181 kts | 23° |
| 2026-05-08 04:03 | -27.26218 | 153.17664 | 3250 ft | 197 kts | 24° |
| 2026-05-08 04:03 | -27.23405 | 153.19228 | 3305 ft | 252 kts | 24° |
| 2026-05-08 04:03 | -27.21782 | 153.20135 | 3548 ft | 267 kts | 25° |
| 2026-05-08 04:04 | -27.20096 | 153.21086 | 3940 ft | 275 kts | 25° |
| 2026-05-08 04:04 | -27.18331 | 153.21946 | 4359 ft | 278 kts | 12° |
| 2026-05-08 04:04 | -27.16429 | 153.22260 | 4894 ft | 276 kts | 4° |
| 2026-05-08 04:04 | -27.14515 | 153.22495 | 5388 ft | 277 kts | 4° |
| 2026-05-08 04:05 | -27.12594 | 153.22715 | 5873 ft | 278 kts | 4° |
| 2026-05-08 04:05 | -27.10664 | 153.22929 | 6352 ft | 279 kts | 4° |
| 2026-05-08 04:05 | -27.08731 | 153.23148 | 6821 ft | 279 kts | 4° |
| 2026-05-08 04:05 | -27.06794 | 153.23381 | 7275 ft | 279 kts | 5° |
| 2026-05-08 04:06 | -27.04862 | 153.23618 | 7722 ft | 279 kts | 5° |
| 2026-05-08 04:06 | -27.02932 | 153.23860 | 8176 ft | 279 kts | 4° |
| 2026-05-08 04:06 | -27.00998 | 153.24009 | 8624 ft | 278 kts | 0° |
| 2026-05-08 04:06 | -26.99051 | 153.24064 | 8994 ft | 281 kts | 359° |
| 2026-05-08 04:07 | -26.97088 | 153.24087 | 9375 ft | 283 kts | 358° |
| 2026-05-08 04:07 | -26.95113 | 153.24099 | 9762 ft | 285 kts | 358° |
| 2026-05-08 04:07 | -26.93127 | 153.24120 | 10135 ft | 286 kts | 358° |
| 2026-05-08 04:07 | -26.91136 | 153.24156 | 10486 ft | 286 kts | 359° |
| 2026-05-08 04:08 | -26.89143 | 153.24197 | 10843 ft | 287 kts | 359° |
| 2026-05-08 04:08 | -26.87148 | 153.24244 | 11199 ft | 287 kts | 359° |
| 2026-05-08 04:08 | -26.85152 | 153.24288 | 11552 ft | 286 kts | 358° |
| 2026-05-08 04:08 | -26.83161 | 153.24317 | 11912 ft | 286 kts | 358° |
| 2026-05-08 04:09 | -26.81176 | 153.24358 | 12281 ft | 285 kts | 359° |
| 2026-05-08 04:09 | -26.79195 | 153.24407 | 12642 ft | 284 kts | 358° |
| 2026-05-08 04:09 | -26.77224 | 153.24442 | 12996 ft | 283 kts | 358° |
| 2026-05-08 04:09 | -26.75245 | 153.24480 | 13358 ft | 286 kts | 358° |
| 2026-05-08 04:10 | -26.73232 | 153.24516 | 13751 ft | 292 kts | 358° |
| 2026-05-08 04:10 | -26.71190 | 153.24553 | 14156 ft | 295 kts | 358° |
| 2026-05-08 04:10 | -26.69130 | 153.24586 | 14542 ft | 297 kts | 354° |
| 2026-05-08 04:10 | -26.67123 | 153.24179 | 14924 ft | 293 kts | 340° |
| 2026-05-08 04:11 | -26.65174 | 153.23502 | 15331 ft | 294 kts | 338° |
| 2026-05-08 04:11 | -26.63228 | 153.22795 | 15733 ft | 294 kts | 337° |
| 2026-05-08 04:11 | -26.61284 | 153.22072 | 16159 ft | 295 kts | 337° |
| 2026-05-08 04:11 | -26.59341 | 153.21345 | 16588 ft | 295 kts | 336° |
| 2026-05-08 04:12 | -26.57390 | 153.20629 | 17026 ft | 295 kts | 337° |
| 2026-05-08 04:12 | -26.55434 | 153.19939 | 17451 ft | 295 kts | 337° |
| 2026-05-08 04:12 | -26.53480 | 153.19262 | 17898 ft | 294 kts | 337° |
| 2026-05-08 04:12 | -26.51527 | 153.18584 | 18343 ft | 293 kts | 337° |
| 2026-05-08 04:13 | -26.49609 | 153.17914 | 18727 ft | 293 kts | 336° |
| 2026-05-08 04:13 | -26.47667 | 153.17243 | 19104 ft | 292 kts | 336° |
| 2026-05-08 04:13 | -26.45726 | 153.16582 | 19481 ft | 291 kts | 336° |
| 2026-05-08 04:13 | -26.43790 | 153.15926 | 19856 ft | 291 kts | 336° |
| 2026-05-08 04:14 | -26.41860 | 153.15263 | 20233 ft | 290 kts | 335° |
| 2026-05-08 04:14 | -26.39932 | 153.14605 | 20608 ft | 289 kts | 335° |
| 2026-05-08 04:14 | -26.38006 | 153.13955 | 20979 ft | 289 kts | 335° |
| 2026-05-08 04:14 | -26.36091 | 153.13296 | 21346 ft | 288 kts | 335° |
| 2026-05-08 04:15 | -26.34179 | 153.12641 | 21710 ft | 287 kts | 335° |
| 2026-05-08 04:15 | -26.32270 | 153.11987 | 22077 ft | 287 kts | 334° |
| 2026-05-08 04:15 | -26.30352 | 153.11337 | 22450 ft | 289 kts | 334° |
| 2026-05-08 04:15 | -26.28429 | 153.10686 | 22826 ft | 289 kts | 334° |
| 2026-05-08 04:16 | -26.26649 | 153.09772 | 23189 ft | 277 kts | 319° |
| 2026-05-08 04:16 | -26.25091 | 153.08534 | 23553 ft | 274 kts | 316° |
| 2026-05-08 04:16 | -26.23571 | 153.07258 | 23884 ft | 273 kts | 316° |
| 2026-05-08 04:16 | -26.22074 | 153.05967 | 24132 ft | 272 kts | 315° |
| 2026-05-08 04:17 | -26.20580 | 153.04686 | 24460 ft | 270 kts | 315° |
| 2026-05-08 04:17 | -26.19090 | 153.03418 | 24774 ft | 269 kts | 315° |
| 2026-05-08 04:17 | -26.17605 | 153.02165 | 25089 ft | 267 kts | 315° |
| 2026-05-08 04:17 | -26.16118 | 153.00931 | 25397 ft | 266 kts | 316° |
| 2026-05-08 04:18 | -26.14633 | 152.99717 | 25700 ft | 264 kts | 316° |
| 2026-05-08 04:18 | -26.13157 | 152.98515 | 25999 ft | 262 kts | 316° |
| 2026-05-08 04:18 | -26.11691 | 152.97313 | 26272 ft | 262 kts | 315° |
| 2026-05-08 04:18 | -26.10220 | 152.96111 | 26461 ft | 263 kts | 316° |
| 2026-05-08 04:19 | -26.09235 | 152.95320 | 26603 ft | 264 kts | 316° |
| 2026-05-08 04:19 | -26.07740 | 152.94128 | 26778 ft | 266 kts | 316° |
| 2026-05-08 04:19 | -26.06228 | 152.92925 | 26901 ft | 269 kts | 316° |
| 2026-05-08 04:19 | -26.04699 | 152.91711 | 27045 ft | 271 kts | 316° |
| 2026-05-08 04:20 | -26.03161 | 152.90490 | 27197 ft | 273 kts | 316° |
| 2026-05-08 04:20 | -26.01613 | 152.89263 | 27368 ft | 274 kts | 316° |
| 2026-05-08 04:20 | -26.00058 | 152.88029 | 27536 ft | 275 kts | 316° |
| 2026-05-08 04:20 | -25.98503 | 152.86786 | 27714 ft | 276 kts | 316° |
| 2026-05-08 04:21 | -25.96946 | 152.85534 | 27878 ft | 277 kts | 316° |
| 2026-05-08 04:21 | -25.95373 | 152.84275 | 28020 ft | 280 kts | 316° |
| 2026-05-08 04:21 | -25.93780 | 152.83000 | 28070 ft | 285 kts | 316° |
| 2026-05-08 04:21 | -25.92159 | 152.81700 | 28081 ft | 290 kts | 316° |
| 2026-05-08 04:22 | -25.90511 | 152.80368 | 28102 ft | 296 kts | 316° |
| 2026-05-08 04:22 | -25.88833 | 152.79004 | 28112 ft | 302 kts | 316° |
| 2026-05-08 04:22 | -25.85364 | 152.76195 | 28117 ft | 315 kts | 317° |
| 2026-05-08 04:23 | -25.81756 | 152.73315 | 28115 ft | 328 kts | 317° |
| 2026-05-08 04:23 | -25.77993 | 152.70299 | 28117 ft | 340 kts | 317° |
| 2026-05-08 04:24 | -25.74115 | 152.67166 | 28110 ft | 348 kts | 317° |
| 2026-05-08 04:24 | -25.70143 | 152.64007 | 28104 ft | 354 kts | 318° |
| 2026-05-08 04:25 | -25.66123 | 152.60809 | 28102 ft | 358 kts | 318° |
| 2026-05-08 04:25 | -25.62072 | 152.57591 | 28098 ft | 359 kts | 318° |
| 2026-05-08 04:26 | -25.58008 | 152.54357 | 28086 ft | 360 kts | 318° |
| 2026-05-08 04:26 | -25.53921 | 152.51127 | 28094 ft | 361 kts | 318° |
| 2026-05-08 04:27 | -25.49822 | 152.47886 | 28093 ft | 363 kts | 318° |
| 2026-05-08 04:27 | -25.45710 | 152.44632 | 28098 ft | 364 kts | 318° |
| 2026-05-08 04:28 | -25.41586 | 152.41364 | 28098 ft | 365 kts | 318° |
| 2026-05-08 04:28 | -25.37455 | 152.38090 | 28097 ft | 366 kts | 318° |
| 2026-05-08 04:29 | -25.33312 | 152.34802 | 28098 ft | 367 kts | 318° |
| 2026-05-08 04:29 | -25.29165 | 152.31509 | 28093 ft | 367 kts | 318° |
| 2026-05-08 04:30 | -25.25012 | 152.28203 | 28078 ft | 368 kts | 318° |
| 2026-05-08 04:30 | -25.20864 | 152.24891 | 28094 ft | 368 kts | 318° |
| 2026-05-08 04:31 | -25.16680 | 152.21603 | 28091 ft | 369 kts | 318° |
| 2026-05-08 04:31 | -25.12494 | 152.18312 | 28093 ft | 370 kts | 319° |
| 2026-05-08 04:32 | -25.08303 | 152.15012 | 28100 ft | 370 kts | 319° |
| 2026-05-08 04:32 | -25.04128 | 152.11736 | 28096 ft | 371 kts | 319° |
| 2026-05-08 04:33 | -24.99927 | 152.08446 | 28092 ft | 369 kts | 319° |
| 2026-05-08 04:33 | -24.95774 | 152.05190 | 28072 ft | 364 kts | 318° |
| 2026-05-08 04:34 | -24.91670 | 152.01983 | 28095 ft | 359 kts | 318° |
| 2026-05-08 04:34 | -24.87621 | 151.98815 | 28100 ft | 355 kts | 319° |
| 2026-05-08 04:35 | -24.83617 | 151.95685 | 28090 ft | 351 kts | 319° |
| 2026-05-08 04:35 | -24.79666 | 151.92603 | 28081 ft | 346 kts | 318° |
| 2026-05-08 04:36 | -24.75773 | 151.89565 | 28094 ft | 340 kts | 318° |
| 2026-05-08 04:36 | -24.71944 | 151.86568 | 28097 ft | 335 kts | 318° |
| 2026-05-08 04:37 | -24.68172 | 151.83624 | 28091 ft | 330 kts | 318° |
| 2026-05-08 04:37 | -24.64456 | 151.80735 | 28092 ft | 324 kts | 318° |
| 2026-05-08 04:38 | -24.60807 | 151.77913 | 28065 ft | 317 kts | 318° |
| 2026-05-08 04:38 | -24.57228 | 151.75155 | 28094 ft | 313 kts | 318° |
| 2026-05-08 04:39 | -24.53669 | 151.72411 | 28097 ft | 313 kts | 317° |
| 2026-05-08 04:39 | -24.50110 | 151.69664 | 28097 ft | 312 kts | 317° |
| 2026-05-08 04:40 | -24.46582 | 151.66938 | 28098 ft | 312 kts | 318° |
| 2026-05-08 04:40 | -24.43030 | 151.64193 | 28091 ft | 312 kts | 318° |
| 2026-05-08 04:41 | -24.39487 | 151.61454 | 28096 ft | 311 kts | 318° |
| 2026-05-08 04:41 | -24.35947 | 151.58721 | 28095 ft | 311 kts | 318° |
| 2026-05-08 04:42 | -24.32411 | 151.55990 | 28090 ft | 311 kts | 317° |
| 2026-05-08 04:42 | -24.28881 | 151.53260 | 28093 ft | 310 kts | 317° |